logo
App data

Zombie Apocalypse: Escape The Undead City

Battle through Zombie Apocalypse horror! Which is better - shotgun, pistol or AK-47? Blast their rotten, infected brains out and choose your favorite! Scavenge weapons and armor to pimp out your souped up zombie slaying car - then plow down the man-eating hordes to Escape the Undead City, and try not to get your guts torn out!!!
Store | Hub | SteamDB | Site
Developer: Anarchy Enterprises Publisher: Anarchy Enterprises
Genre: Action, Indie
Languages: English
Tags: Action (24), Indie (23), Zombies (19), Shoot 'Em Up (11), Singleplayer (11), Shooter (9), Fast-Paced (9)
Category: Single-player, Steam Trading Cards
Release date: Jun 17, 2016
Price: $0.99
Score rank: 6% Userscore: 39% Old userscore: 32%
Owners: 0 .. 20,000
Followers: 126
Peak concurrent players yesterday: 1
Playtime total: 02:38 (average) 03:03 (median)

Steam Spy is still in beta, so expect major bugs.

Owners data:

Access restricted.

This feature is only available to users with special access rights. Sorry.

If you want to proceed, you need to register or log in first and then back Steam Spy on Patreon. Look for Indie or Pro pledge.

Don't forget to use the same email as on Steam Spy!

Audience in 2 weeks:

Access restricted.

This feature is only available to users with special access rights. Sorry.

If you want to proceed, you need to register or log in first and then back Steam Spy on Patreon. Look for Indie or Pro pledge.

Don't forget to use the same email as on Steam Spy!

Peak daily concurrent players:

CCU data courtesy of SteamDB. Used with permission.

Hourly concurrent players:

YouTube:

The views data is based on top 50 videos uploaded last week. Actual number of views might be more than the number shown.

The displayed number of videos uploaded yesterday is limited to 50, so if there were more videos uploaded, the number will still show 50.

If the game has commonly used word as its name (like "FEAR" or "Volume") its number of Youtube views might be wrong.

Games similar to this one:

# Game Release date
Price
Score rank
(Userscore / Metascore)
Owners
Players
Playtime (Median)
1 Little Big Adventure 2 Oct 20, 2015 $3.9999% (98%)0 .. 20,0000%00:00 (00:00)
2 Militia Dec 2, 2015 $5.9999% (98%)0 .. 20,0000%00:00 (00:00)
3 Seven Kingdoms: Ancient Adversaries Mar 22, 2016 $5.99N/A (N/A)0 .. 20,0000%00:00 (00:00)
4 Dungeon Warfare Nov 4, 2015 $4.4997% (97%)20,000 .. 50,0003.33%00:01 (00:00)
5 Imperium Galactica Jan 19, 2017 $4.99N/A (N/A)0 .. 20,0000%00:00 (00:00)
6 Defend The Highlands Nov 6, 2015 $9.9995% (96%)100,000 .. 200,0001.84%02:34 (04:15)
7 Voodoo Vince: Remastered Apr 17, 2017 $14.9995% (96%/63%)0 .. 20,0000%00:00 (00:00)
8 Hegemony Gold: Wars of Ancient Greece Mar 30, 2012 $14.9993% (95%)20,000 .. 50,0000%00:00 (00:00)
9 Chicken Invaders 2 Mar 4, 2016 $3.9993% (95%)0 .. 20,0000%00:00 (00:00)
10 Templar Battleforce Sep 21, 2015 $9.9993% (95%)20,000 .. 50,0000%00:00 (00:00)
11 Darknet Jun 8, 2017 $14.9993% (95%)0 .. 20,0000%00:00 (00:00)
12 PixelJunk Shooter Nov 11, 2013 $8.9993% (95%/73%)100,000 .. 200,0000%00:00 (00:00)
13 Outcast 1.1 Dec 18, 2014 $5.9993% (95%)20,000 .. 50,0000%00:00 (00:00)
14 Neon Chrome Apr 28, 2016 $14.9990% (94%/74%)200,000 .. 500,0001.51%01:34 (01:27)
15 Supercharged Robot VULKAISER Jun 4, 2015 $4.9990% (94%)20,000 .. 50,0000%00:00 (00:00)
16 Kalimba Apr 22, 2015 $9.9990% (94%/81%)0 .. 20,0000%00:00 (00:00)
17 Majesty Gold HD Mar 23, 2001 $9.9990% (94%)100,000 .. 200,0000%00:00 (00:00)
18 Gold Rush! Classic Dec 23, 1988 $2.9990% (94%)200,000 .. 500,0000.39%00:01 (00:00)
19 Flywrench Aug 24, 2015 $6.9990% (94%)0 .. 20,0000%00:00 (00:00)
20 Run or Die Dec 11, 2014 $4.9990% (94%)0 .. 20,0000%00:00 (00:00)
21 Stick it to The Man! Dec 13, 2013 $7.9990% (94%/83%)20,000 .. 50,0000%00:00 (00:00)
22 Spider: Rite of the Shrouded Moon Aug 6, 2015 $9.9990% (94%)20,000 .. 50,0000%00:00 (00:00)
23 Handsome Mr. Frog Aug 8, 2016 $0.9990% (94%)0 .. 20,0000%00:00 (00:00)
24 Star Trek: Judgment Rites May 8, 2015 $9.99N/A (N/A)0 .. 20,0000%00:00 (00:00)
25 ESCHATOS Sep 18, 2015 $14.9990% (94%)0 .. 20,0000%00:00 (00:00)
26 Audio Arena Jul 25, 2016 $6.99N/A (N/A)0 .. 20,0000%00:00 (00:00)
27 Major Mayhem Feb 24, 2014 $4.9987% (93%)20,000 .. 50,0000%00:00 (00:00)
28 Kick Ass Commandos Nov 17, 2016 $9.9987% (93%)0 .. 20,0000%00:00 (00:00)
29 Adventure in the Tower of Flight Dec 23, 2015 $4.9987% (93%)0 .. 20,0000%00:00 (00:00)
30 Super Trench Attack! Jul 24, 2014 $4.9987% (93%)50,000 .. 100,0000%00:00 (00:00)
31 Bleed Jul 3, 2013 $4.9987% (93%)100,000 .. 200,0000%00:00 (00:00)
32 Tallowmere Mar 3, 2015 $3.9987% (93%)20,000 .. 50,0009.09%02:54 (02:52)
33 RIVE: Wreck, Hack, Die, Retry! Sep 13, 2016 $14.9987% (93%)200,000 .. 500,0000.87%00:01 (00:00)
34 Ys VI: The Ark of Napishtim Apr 28, 2015 $19.9987% (93%)50,000 .. 100,0000%00:00 (00:00)
35 Eufloria HD Oct 14, 2014 $14.9987% (93%)200,000 .. 500,0000%00:00 (00:00)
36 Death Ray Manta SE Sep 17, 2015 $1.9983% (92%)20,000 .. 50,0000%00:00 (00:00)
37 Super Cyborg Jul 8, 2015 $4.9983% (92%)20,000 .. 50,0003.26%03:24 (02:26)
38 Shmups Skill Test シューティング技能検定 Jun 9, 2016 $4.99N/A (N/A)0 .. 20,0000%00:00 (00:00)
39 Wars and Warriors: Joan of Arc Feb 7, 2004 $6.9983% (92%/60%)0 .. 20,0000%00:00 (00:00)
40 Counter Spell Oct 5, 2015 $9.9983% (92%)0 .. 20,0000%00:00 (00:00)
41 Anarcute Jul 12, 2016 $14.9983% (92%/79%)0 .. 20,0000%00:00 (00:00)
42 Below Kryll Sep 7, 2015 $4.9983% (92%)0 .. 20,0000%00:00 (00:00)
43 Pharaoh Rebirth+ Mar 17, 2016 $9.9983% (92%)0 .. 20,0000%00:00 (00:00)
44 Ittle Dew Jul 23, 2013 $9.9983% (92%/67%)100,000 .. 200,0000%00:00 (00:00)
45 Great Big War Game Aug 28, 2012 $6.99N/A (N/A)0 .. 20,0000%00:00 (00:00)
46 Knightmare Tower Jun 16, 2014 $3.9983% (92%)0 .. 20,0000%00:00 (00:00)
47 Mad Bullets Jun 10, 2016 $1.9983% (92%)0 .. 20,0000%00:00 (00:00)
48 Battle Academy 2: Eastern Front Sep 12, 2014 $39.9983% (92%/78%)0 .. 20,0000%00:00 (00:00)
49 The Juicer Sep 6, 2012 $0.9983% (92%)20,000 .. 50,0000.82%05:09 (01:43)
50 Clash of Puppets Dec 16, 2014 $4.9980% (91%)0 .. 20,0000%00:00 (00:00)
51 Warrior Kings: Battles Sep 30, 2003 $9.9980% (91%/64%)20,000 .. 50,0000%00:00 (00:00)
52 Explosionade Sep 23, 2015 $3.99N/A (N/A)0 .. 20,0000%00:00 (00:00)
53 Blue Estate The Game Apr 8, 2015 $12.9980% (91%/59%)50,000 .. 100,0000%00:00 (00:00)
54 Angry Video Game Nerd II: ASSimilation Mar 29, 2016 $9.9980% (91%)20,000 .. 50,0000%00:00 (00:00)
55 Demons with Shotguns Apr 25, 2016 $9.99N/A (N/A)0 .. 20,0000%00:00 (00:00)
56 Miracle Fly Oct 26, 2015 $7.9980% (91%)20,000 .. 50,0002.27%00:23 (00:07)
57 Swords and Soldiers HD Dec 2, 2010 $9.9980% (91%)200,000 .. 500,0000%00:00 (00:00)
58 Flashpoint Campaigns: Red Storm Player's Edition Oct 9, 2013 $49.9980% (91%)0 .. 20,0000%00:00 (00:00)
59 Near Death Aug 2, 2016 $7.4980% (91%/70%)0 .. 20,0000%00:00 (00:00)
60 Armed with Wings: Rearmed Jun 1, 2017 $9.9980% (91%)20,000 .. 50,0001.89%03:32 (01:10)
61 Khet 2.0 Oct 1, 2014 $9.9980% (91%)50,000 .. 100,0000%00:00 (00:00)
62 Dandy: Or a Brief Glimpse Into the Life of the Candy Alchemist Aug 4, 2015 $9.99N/A (N/A)0 .. 20,0000%00:00 (00:00)
63 Earth Defense Force: Insect Armageddon Dec 14, 2011 $9.9980% (91%/69%)50,000 .. 100,0003.64%00:18 (00:11)
64 Momodora III Jul 1, 2014 $1.9980% (91%)50,000 .. 100,0000%00:00 (00:00)
65 Skulls of the Shogun Jul 29, 2013 $9.9980% (91%/72%)100,000 .. 200,0000.53%05:29 (01:49)
66 Valley Aug 24, 2016 $19.9980% (91%)100,000 .. 200,0002.08%00:07 (00:04)
67 Wild Guns Reloaded Jul 11, 2017 $19.9976% (90%)0 .. 20,0000%00:00 (00:00)
68 System Crash Aug 1, 2016 $14.9976% (90%)0 .. 20,0000%00:00 (00:00)
69 Weird Hero Nov 18, 2016 $2.9976% (90%)0 .. 20,0000%00:00 (00:00)
70 Headlander Jul 25, 2016 $19.9976% (90%/74%)100,000 .. 200,0000.71%03:31 (01:10)
71 Apocalypse: Party's Over May 30, 2016 $4.9976% (90%)0 .. 20,0000%00:00 (00:00)
72 Planet of the Eyes Aug 24, 2015 $9.9976% (90%/66%)50,000 .. 100,0000%00:00 (00:00)
73 Death's Hangover Jan 20, 2017 $4.9976% (90%)20,000 .. 50,0002.74%02:46 (00:55)
74 Superstatic Sep 15, 2015 $4.99N/A (N/A)0 .. 20,0000%00:00 (00:00)
75 Ace of Seafood Apr 8, 2016 $11.9976% (90%)0 .. 20,00011.11%04:28 (01:29)
76 Silent Storm Gold Edition Sep 9, 2004 $9.9976% (90%/83%)200,000 .. 500,0002.38%08:07 (05:24)
77 Lethe - Episode One Aug 1, 2016 $14.9976% (90%)0 .. 20,0000%00:00 (00:00)
78 Kohan: Ahriman's Gift Nov 6, 2001 $9.99N/A (N/A/79%)0 .. 20,0000%00:00 (00:00)
79 Fort Meow Jun 25, 2015 $2.7176% (90%)0 .. 20,0003.33%00:09 (00:03)
80 Kohan II: Kings of War Sep 21, 2004 $9.9976% (90%/81%)0 .. 20,0000%00:00 (00:00)
81 Sneaky Sneaky Nov 12, 2014 $4.9973% (89%/63%)0 .. 20,0000%00:00 (00:00)
82 Warhammer 40,000: Dawn of War – Winter Assault Jan 1, 2006 $12.9973% (89%)500,000 .. 1,000,0001.23%00:25 (00:32)
83 Zombo Buster Rising Oct 2, 2016 $1.9973% (89%)0 .. 20,0000%00:00 (00:00)
84 Amaranthine Apr 6, 2016 $0.8973% (89%)0 .. 20,0003.57%04:44 (01:34)
85 Command: Northern Inferno Oct 22, 2015 $19.99N/A (N/A)0 .. 20,0000%00:00 (00:00)
86 Spectromancer Oct 15, 2008 $9.9973% (89%)20,000 .. 50,0000%00:00 (00:00)
87 MoonBase Commander Aug 13, 2002 $5.9973% (89%/77%)20,000 .. 50,0000%00:00 (00:00)
88 Codename: Panzers, Phase Two Jul 21, 2005 $14.9973% (89%/80%)0 .. 20,0000%00:00 (00:00)
89 CastleStorm Jul 29, 2013 $9.9973% (89%/73%)100,000 .. 200,0000.74%01:50 (00:36)
90 Reverse Crawl Sep 24, 2015 $5.9973% (89%)20,000 .. 50,0001.19%06:21 (02:07)
91 Graviteam Tactics: Mius-Front Mar 4, 2016 $34.9973% (89%)0 .. 20,0000%00:00 (00:00)
92 Viking Squad Oct 4, 2016 $14.9970% (88%)0 .. 20,0000%00:00 (00:00)
93 Anodyne Mar 22, 2013 $9.9970% (88%/75%)100,000 .. 200,0000%00:00 (00:00)
94 Greed Corp Dec 10, 2010 $9.9970% (88%/76%)200,000 .. 500,0000%00:00 (00:00)
95 Battlepillars Gold Edition Apr 28, 2014 $4.9970% (88%)20,000 .. 50,0000%00:00 (00:00)
96 The Fall May 30, 2014 $9.9970% (88%/76%)200,000 .. 500,0001.42%04:40 (03:30)
97 Avoid - Sensory Overload Apr 8, 2014 $4.9970% (88%)0 .. 20,0000%00:00 (00:00)
98 Atom Zombie Smasher Mar 14, 2011 $9.9970% (88%/75%)200,000 .. 500,0000%00:00 (00:00)
99 Earn to Die 2 May 5, 2016 $4.9970% (88%)0 .. 20,0000%00:00 (00:00)
100 Lethal VR Nov 8, 2016 $14.9970% (88%/66%)0 .. 20,0000%00:00 (00:00)
101 Tcheco in the Castle of Lucio Jun 22, 2015 $0.9970% (88%)50,000 .. 100,0000.5%02:39 (00:53)
102 Syrian Warfare Feb 21, 2017 $14.9970% (88%)20,000 .. 50,0003.13%00:01 (00:00)
103 Super Furball May 13, 2014 $3.99N/A (N/A)0 .. 20,0000%00:00 (00:00)
104 The Way May 20, 2016 $14.9970% (88%/67%)20,000 .. 50,0000%00:00 (00:00)
105 Blacksea Odyssey Jun 1, 2016 $9.9970% (88%/74%)0 .. 20,0000%00:00 (00:00)
106 Sang-Froid - Tales of Werewolves Apr 5, 2013 Free68% (87%/79%)200,000 .. 500,0000.86%01:38 (01:38)
107 Neon Shadow Aug 25, 2016 $4.99N/A (N/A)0 .. 20,0000%00:00 (00:00)
108 Interloper May 21, 2015 $168% (87%/77%)50,000 .. 100,0001.17%02:22 (02:21)
109 Supreme Commander Feb 20, 2007 $14.9968% (87%/86%)500,000 .. 1,000,0000%00:00 (00:00)
110 Shadow Blade: Reload Aug 10, 2015 $14.9968% (87%/70%)20,000 .. 50,0003.23%01:34 (01:33)
111 The Tiny Tale 2 Jan 30, 2015 $6.99N/A (N/A)0 .. 20,0000%00:00 (00:00)
112 TRON 2.0 Aug 22, 2003 $9.9968% (87%/84%)50,000 .. 100,0000%00:00 (00:00)
113 Bullet Sorrow VR Apr 17, 2017 $19.9968% (87%)0 .. 20,0000%00:00 (00:00)
114 Civilization IV: Warlords Jul 24, 2006 $4.9968% (87%/84%)1,000,000 .. 2,000,0000.24%00:02 (00:00)
115 Spooky Cats Jun 4, 2015 $2.9968% (87%)20,000 .. 50,0001.49%02:05 (00:41)
116 Mr. Shifty Apr 13, 2017 $14.9968% (87%)50,000 .. 100,0001.2%00:41 (00:20)
117 Rush for Berlin Gold Oct 29, 2009 $4.9965% (86%/76%)20,000 .. 50,0002.94%00:02 (00:00)
118 Arcane Sorcery Sep 15, 2015 $0.74N/A (N/A)0 .. 20,0000%00:00 (00:00)
119 Star Ruler Sep 20, 2010 $9.9965% (86%)100,000 .. 200,0000%00:00 (00:00)
120 Super Chibi Knight Jun 24, 2015 $4.9965% (86%)20,000 .. 50,0000%00:00 (00:00)
121 N2O: Nitrous Oxide Jun 29, 2015 $4.99N/A (N/A)0 .. 20,0000%00:00 (00:00)
122 Meltdown Jun 5, 2014 $6.9965% (86%)50,000 .. 100,0000%00:00 (00:00)
123 Age of Wonders Shadow Magic Oct 2010 $9.9965% (86%/82%)100,000 .. 200,0000%00:00 (00:00)
124 Time Rifters Oct 21, 2014 $9.9965% (86%)0 .. 20,0000%00:00 (00:00)
125 The Haunted: Hells Reach Oct 24, 2011 $8.9965% (86%/51%)50,000 .. 100,0000%00:00 (00:00)
126 VelocityUltra Dec 12, 2013 $9.9965% (86%)50,000 .. 100,0000%00:00 (00:00)
127 Executive Assault Jul 17, 2015 $12.9965% (86%)20,000 .. 50,0005%00:23 (00:07)
128 Western 1849 Reloaded Feb 10, 2017 $4.9965% (86%)0 .. 20,0000%00:00 (00:00)
129 Ghost Master Aug 23, 2003 $0.9965% (86%/81%)100,000 .. 200,0000%00:00 (00:00)
130 CRYPTARK Jun 20, 2017 $14.9962% (85%/80%)50,000 .. 100,0000%00:00 (00:00)
131 Slash or Die Jun 3, 2016 $2.9962% (85%)20,000 .. 50,0000.62%04:02 (01:20)
132 Dustoff Heli Rescue Mar 6, 2015 $3.9962% (85%)20,000 .. 50,0001.43%04:07 (01:22)
133 Concealed Intent Aug 2, 2016 $14.99N/A (N/A)0 .. 20,0000%00:00 (00:00)
134 ENSLAVED: Odyssey to the West Premium Edition Oct 24, 2013 $19.9962% (85%/70%)200,000 .. 500,0000.34%00:01 (00:00)
135 Steel Rain Dec 3, 2015 $9.9962% (85%)0 .. 20,0000%00:00 (00:00)
136 Magnifico Dec 2, 2014 $4.9962% (85%)50,000 .. 100,0000%00:00 (00:00)
137 ShootMania Storm Apr 10, 2013 $19.9962% (85%/76%)50,000 .. 100,0000%00:00 (00:00)
138 NOBUNAGA'S AMBITION: Souzou (Traditional Chinese version) Aug 2014 $24.9962% (85%)20,000 .. 50,0000%00:00 (00:00)
139 Battle Group 2 Jun 13, 2014 $7.9960% (84%)50,000 .. 100,0000.97%00:25 (00:08)
140 Foresight Nov 28, 2014 $4.99N/A (N/A)0 .. 20,0000%00:00 (00:00)
141 Act of War: Direct Action Mar 14, 2005 $2.9960% (84%/82%)20,000 .. 50,0000%00:00 (00:00)
142 Bulletstorm: Full Clip Edition Apr 7, 2017 $39.9960% (84%/76%)20,000 .. 50,0004.55%05:24 (01:48)
143 Eador: Genesis Aug 7, 2009 $5.9960% (84%)50,000 .. 100,0000%00:00 (00:00)
144 Rooks Keep Dec 5, 2014 $7.9960% (84%)20,000 .. 50,0001.33%04:33 (01:31)
145 Yomi May 8, 2015 $14.9960% (84%)0 .. 20,0000%00:00 (00:00)
146 The Men of Yoshiwara: Kikuya Oct 15, 2015 $29.9960% (84%)0 .. 20,0000%00:00 (00:00)
147 Ballistic Tanks Sep 20, 2016 $4.9960% (84%)0 .. 20,0000%00:00 (00:00)
148 Last Knight: Rogue Rider Edition Oct 3, 2014 $7.9960% (84%)20,000 .. 50,0000%00:00 (00:00)
149 Gurgamoth Feb 16, 2016 $4.9960% (84%)50,000 .. 100,0000%00:00 (00:00)
150 Sudden Strike 2 Gold May 22, 2017 $5.9960% (84%)0 .. 20,0000%00:00 (00:00)
151 Conflict Desert Storm Sep 13, 2002 $6.9960% (84%/56%)20,000 .. 50,0000%00:00 (00:00)
152 Fat Chicken Dec 4, 2014 $9.99N/A (N/A)0 .. 20,0000%00:00 (00:00)
153 Child Of Ault Jan 24, 2017 $9.99N/A (N/A)0 .. 20,0000%00:00 (00:00)
154 GIBZ Apr 7, 2017 $7.9957% (83%)0 .. 20,0000%00:00 (00:00)
155 Orbital Gear Aug 7, 2014 $0.9957% (83%/59%)200,000 .. 500,0000.34%05:33 (01:51)
156 TY the Tasmanian Tiger 4 Sep 17, 2015 $5.9957% (83%)0 .. 20,0000%00:00 (00:00)
157 Ace of Protectors Jun 27, 2016 $1.99N/A (N/A)0 .. 20,0002.38%06:31 (02:10)
158 Disciples Sacred Lands Gold Oct 4, 1999 $7.9957% (83%)50,000 .. 100,0000%00:00 (00:00)
159 Galaxy Admirals Jan 17, 2017 $1.9957% (83%)50,000 .. 100,0000%00:00 (00:00)
160 Delta Force 2 Oct 31, 1999 $4.9957% (83%)50,000 .. 100,0005.88%00:29 (00:19)
161 Crush Your Enemies Jul 13, 2016 $9.9957% (83%/63%)20,000 .. 50,0000%00:00 (00:00)
162 Rack N Ruin Sep 1, 2015 $9.9957% (83%)0 .. 20,0000%00:00 (00:00)
163 Advanced Tactics Gold Apr 12, 2011 $29.9957% (83%)0 .. 20,0000%00:00 (00:00)
164 Legend (1994) Apr 1, 1994 $4.99N/A (N/A)0 .. 20,0000%00:00 (00:00)
165 NOBUNAGA'S AMBITION: Sphere of Influence Sep 1, 2015 $59.9957% (83%/70%)20,000 .. 50,0000%00:00 (00:00)
166 Defense Zone Jul 14, 2014 $2.99N/A (N/A)0 .. 20,0000%00:00 (00:00)
167 htoL#NiQ: The Firefly Diary / htoL#NiQ-ホタルノニッキ- May 18, 2016 $9.9955% (82%)0 .. 20,0000%00:00 (00:00)
168 Fleet Command May 15, 1999 $9.9955% (82%)20,000 .. 50,0000%00:00 (00:00)
169 Blade Arcus from Shining: Battle Arena Jul 28, 2016 $29.9955% (82%)0 .. 20,0000%00:00 (00:00)
170 Decisive Campaigns: The Blitzkrieg from Warsaw to Paris Aug 26, 2010 $39.99N/A (N/A)0 .. 20,0000%00:00 (00:00)
171 Shadow Ops: Red Mercury Sep 17, 2004 $6.9955% (82%/61%)20,000 .. 50,0000%00:00 (00:00)
172 PixelJunk Shooter Ultimate Oct 21, 2015 $9.9955% (82%)0 .. 20,0000%00:00 (00:00)
173 After The End: The Harvest Jun 2, 2017 $4.9955% (82%)20,000 .. 50,0000%00:00 (00:00)
174 In Verbis Virtus Apr 3, 2015 $19.9953% (81%)50,000 .. 100,0000%00:00 (00:00)
175 Age of Wonders Oct 2010 $5.9953% (81%)100,000 .. 200,0000%00:00 (00:00)
176 Junk Jack Nov 30, 2016 $14.9953% (81%)0 .. 20,00025%00:52 (00:17)
177 Jim Power -The Lost Dimension Dec 10, 1993 $4.99N/A (N/A)0 .. 20,0000%00:00 (00:00)
178 Square Brawl Oct 22, 2015 $4.9953% (81%)0 .. 20,0000%00:00 (00:00)
179 Enemy Mind Jun 6, 2014 $9.9953% (81%)200,000 .. 500,0000%00:00 (00:00)
180 She Wants Me Dead May 13, 2016 $7.9953% (81%)0 .. 20,0000%00:00 (00:00)
181 rymdkapsel Jan 30, 2014 $7.9953% (81%/77%)0 .. 20,0000%00:00 (00:00)
182 Toadled Sep 22, 2016 $0.4953% (81%)50,000 .. 100,0000.36%00:02 (00:00)
183 Afghanistan '11 Mar 23, 2017 $29.9953% (81%)0 .. 20,0000%00:00 (00:00)
184 Dominions 3: The Awakening Sep 10, 2013 $19.9950% (80%/82%)0 .. 20,0000%00:00 (00:00)
185 Making History: The Calm & the Storm Mar 13, 2007 $4.9950% (80%/70%)50,000 .. 100,0000%00:00 (00:00)
186 Weapon of Choice Sep 23, 2015 $4.99N/A (N/A)0 .. 20,0000%00:00 (00:00)
187 Tiki Man Jun 4, 2015 $0.9950% (80%)20,000 .. 50,0000.95%00:01 (00:00)
188 Supreme Ruler 2020 Gold Jun 17, 2008 $9.9950% (80%/65%)50,000 .. 100,0002.27%00:01 (00:00)
189 Gatling Gears Aug 30, 2011 $9.9950% (80%)20,000 .. 50,0000%00:00 (00:00)
190 Legends of Callasia Jun 10, 2016 $14.9950% (80%)20,000 .. 50,0000%00:00 (00:00)
191 Run Rabbit Run Mar 31, 2016 $3.9950% (80%)0 .. 20,0002.63%11:37 (03:52)
192 Umihara Kawase Shun: Steam Edition Nov 24, 2015 $11.99N/A (N/A)0 .. 20,0000%00:00 (00:00)
193 Monday Night Combat Jan 24, 2011 $4.9950% (80%/82%)200,000 .. 500,0000%00:00 (00:00)
194 7,62 High Calibre Aug 24, 2007 $4.9950% (80%)50,000 .. 100,0000%00:00 (00:00)
195 Zeno Clash 2 Apr 30, 2013 $14.9950% (80%)200,000 .. 500,0000%00:00 (00:00)
196 Defense Zone 3 Ultra HD Dec 14, 2016 $2.9950% (80%)0 .. 20,0000%00:00 (00:00)
197 Ninjahtic Jul 6, 2015 $1.9950% (80%)0 .. 20,0000%00:00 (00:00)
198 Anomaly 2 May 15, 2013 $14.9950% (80%/77%)200,000 .. 500,0000.71%00:21 (00:10)
199 Fate of the World Feb 28, 2011 $9.9950% (80%/70%)50,000 .. 100,0000%00:00 (00:00)
200 Fantasy Wars Aug 6, 2010 $4.9950% (80%/67%)50,000 .. 100,0000%00:00 (00:00)
201 Trigger Runners Mar 3, 2016 $1.9950% (80%)0 .. 20,0000%00:00 (00:00)
202 ROD: Revolt Of Defense Aug 12, 2016 $0.9950% (80%)20,000 .. 50,0000%00:00 (00:00)
203 Interplanetary May 12, 2015 N/A50% (80%)100,000 .. 200,0000%00:00 (00:00)
204 Graviteam Tactics: Operation Star Mar 22, 2012 $29.9950% (80%)20,000 .. 50,00013.33%00:25 (00:16)
205 Age of Gladiators Feb 25, 2016 $9.9950% (80%)20,000 .. 50,0003.64%01:42 (01:07)
206 Anomaly Warzone Earth Mobile Campaign Nov 6, 2013 $4.9950% (80%)100,000 .. 200,0000%00:00 (00:00)
207 Bloodsports.TV Mar 30, 2015 $9.9950% (80%/69%)50,000 .. 100,0000%00:00 (00:00)
208 Gun Metal Sep 23, 2003 $2.9950% (80%)200,000 .. 500,0000.65%02:16 (00:58)
209 Perimeter May 21, 2004 $3.9950% (80%/77%)20,000 .. 50,0000%00:00 (00:00)
210 Conquest of Elysium 3 Oct 24, 2012 $4.9950% (80%)20,000 .. 50,0000%00:00 (00:00)
211 Klang Sep 22, 2016 $14.9948% (79%/71%)0 .. 20,0000%00:00 (00:00)
212 Demolition Inc. Sep 19, 2011 $5.9948% (79%)50,000 .. 100,0000%00:00 (00:00)
213 Nuclear Dawn Sep 26, 2011 $9.9948% (79%/71%)200,000 .. 500,0001.06%01:19 (01:12)
214 Locoland Nov 22, 2003 $4.9948% (79%)0 .. 20,0000%00:00 (00:00)
215 Fortified Feb 3, 2016 $14.9948% (79%)0 .. 20,0000%00:00 (00:00)
216 Zombie Party Jun 10, 2016 $9.9948% (79%)100,000 .. 200,0000%00:00 (00:00)
217 David. Mar 14, 2014 $1.9948% (79%)50,000 .. 100,0000.79%04:34 (01:31)
218 Protoshift Jan 15, 2016 $0.9948% (79%)0 .. 20,0003.39%01:40 (01:06)
219 Hail to the King: Deathbat Oct 30, 2014 $5.9948% (79%)0 .. 20,0000%00:00 (00:00)
220 Caster Mar 19, 2009 $1.9948% (79%)200,000 .. 500,0000.56%74:32 (49:40)
221 TASTEE: Lethal Tactics May 10, 2016 $14.9948% (79%)20,000 .. 50,0005%01:16 (00:46)
222 Advent Rising Aug 9, 2005 $9.9948% (79%/70%)20,000 .. 50,0000%00:00 (00:00)
223 Star Wolves 3: Civil War Mar 2, 2010 $4.9948% (79%)100,000 .. 200,0000%00:00 (00:00)
224 Ironcast Mar 26, 2015 $14.9948% (79%/75%)20,000 .. 50,0000%00:00 (00:00)
225 TRON RUN/r Feb 16, 2016 $19.9948% (79%)0 .. 20,0000%00:00 (00:00)
226 Vietnam ‘65 Mar 5, 2015 $9.9948% (79%/81%)20,000 .. 50,0000%00:00 (00:00)
227 Cultures - 8th Wonder of the World Mar 26, 2015 $4.9948% (79%)50,000 .. 100,0000.95%10:04 (03:21)
228 Envoy Mar 17, 2016 $0.4948% (79%)50,000 .. 100,0000.49%04:26 (01:28)
229 Blue Effect VR Feb 8, 2017 $14.9948% (79%)0 .. 20,0000%00:00 (00:00)
230 Star Realms Mar 8, 2016 Free46% (78%)50,000 .. 100,0000%00:00 (00:00)
231 Dangerous Waters Feb 7, 2006 $14.9946% (78%/82%)50,000 .. 100,0000%00:00 (00:00)
232 Battle Mages: Sign of Darkness Apr 13, 2006 $4.9946% (78%)20,000 .. 50,0000%00:00 (00:00)
233 Aeon Command Jul 3, 2014 $2.9946% (78%)20,000 .. 50,0000%00:00 (00:00)
234 Zombie Killtime Aug 4, 2015 $1.99N/A (N/A)0 .. 20,0001.75%01:30 (00:30)
235 Curse of the Crescent Isle DX Aug 21, 2015 $4.9946% (78%)0 .. 20,0000%00:00 (00:00)
236 Starscape Mar 27, 2003 $7.9946% (78%)20,000 .. 50,0000%00:00 (00:00)
237 The Legend of Dark Witch Dec 1, 2015 $4.9946% (78%)20,000 .. 50,0000%00:00 (00:00)
238 PAC-MAN and the Ghostly Adventures Oct 29, 2013 $19.9946% (78%)0 .. 20,0000%00:00 (00:00)
239 Dead Rising 2: Off the Record Oct 11, 2011 $19.9946% (78%/66%)200,000 .. 500,0001.54%05:22 (02:43)
240 Tank Destroyer Mar 9, 2017 $2.9946% (78%)20,000 .. 50,0000%00:00 (00:00)
241 Deadly 30 Jan 8, 2014 $4.9946% (78%)100,000 .. 200,0004.63%04:05 (04:43)
242 Strike Suit Zero: Director's Cut Apr 8, 2014 $19.9946% (78%)20,000 .. 50,0000%00:00 (00:00)
243 Pharaonic Apr 28, 2016 $9.7446% (78%)20,000 .. 50,0000%00:00 (00:00)
244 Vector Strain Dec 9, 2015 $4.99N/A (N/A)20,000 .. 50,0000%00:00 (00:00)
245 Mold on Pizza Sep 25, 2015 $4.1946% (78%)0 .. 20,0000%00:00 (00:00)
246 Making History II: The War of the World Jun 22, 2010 $14.9946% (78%/38%)20,000 .. 50,0000%00:00 (00:00)
247 A Blind Legend Apr 7, 2016 $6.9944% (77%)0 .. 20,0002.44%04:35 (01:31)
248 Riddled Corpses Jun 2, 2015 $7.9944% (77%)20,000 .. 50,0000%00:00 (00:00)
249 Sky Gamblers: Storm Raiders Jan 7, 2015 $9.9944% (77%)0 .. 20,0000%00:00 (00:00)
250 McDROID Sep 5, 2014 $9.9944% (77%)0 .. 20,0000%00:00 (00:00)
251 Painkiller Hell & Damnation Oct 31, 2012 $19.9944% (77%/64%)500,000 .. 1,000,0001.04%00:42 (00:37)
252 A.R.E.S. Extinction Agenda EX Oct 3, 2014 $9.9944% (77%)0 .. 20,0000%00:00 (00:00)
253 King of Dragon Pass Jul 28, 2015 $11.9944% (77%)20,000 .. 50,0000%00:00 (00:00)
254 The Political Machine 2016 Feb 4, 2016 $9.9944% (77%)50,000 .. 100,0000%00:00 (00:00)
255 Bet On Soldier Sep 26, 2005 $7.9944% (77%)50,000 .. 100,0000%00:00 (00:00)
256 Olympia Rising Jul 23, 2015 $4.9944% (77%)0 .. 20,0000%00:00 (00:00)
257 Warlords Battlecry III May 17, 2004 $5.9944% (77%/73%)0 .. 20,00025%00:02 (00:01)
258 Mysterium: A Psychic Clue Game Jan 12, 2017 $9.9944% (77%)50,000 .. 100,0000%00:00 (00:00)
259 Warhammer 40,000: Armageddon Nov 26, 2014 $39.9944% (77%/68%)20,000 .. 50,0000%00:00 (00:00)
260 Heroes of Might & Magic V: Hammers of Fate Nov 14, 2006 $9.9943% (76%/66%)100,000 .. 200,0000%00:00 (00:00)
261 Z Jul 4, 2014 $6.9943% (76%)100,000 .. 200,0001.99%03:05 (05:07)
262 WARSHIFT Oct 12, 2016 $12.9943% (76%)20,000 .. 50,0000%00:00 (00:00)
263 Extravaganza Rising Jul 21, 2016 $5.99N/A (N/A)20,000 .. 50,0000%00:00 (00:00)
264 Velocity 2X Aug 19, 2015 $19.9943% (76%)50,000 .. 100,0002%05:54 (01:58)
265 Rocket Knight May 11, 2010 $14.9943% (76%/63%)0 .. 20,0000%00:00 (00:00)
266 Livelock Aug 30, 2016 $9.9943% (76%/73%)20,000 .. 50,0002.17%02:57 (00:59)
267 Heroes of Arca Feb 16, 2017 Free43% (76%)0 .. 20,0000%00:00 (00:00)
268 Monster Monpiece Mar 14, 2017 $19.9943% (76%)0 .. 20,00017.65%57:42 (114:18)
269 Cashtronauts Sep 1, 2016 $2.9943% (76%)0 .. 20,0000%00:00 (00:00)
270 Starchaser: Priestess of the Night Sky Jul 24, 2015 $9.99N/A (N/A)0 .. 20,0000%00:00 (00:00)
271 Star Hammer: The Vanguard Prophecy Jun 4, 2015 $19.9943% (76%/69%)0 .. 20,0000%00:00 (00:00)
272 Rocketbirds 2 Evolution Jan 26, 2017 $9.9943% (76%)0 .. 20,0002.44%00:57 (00:19)
273 BloodRayne Sep 9, 2003 $9.9943% (76%/65%)50,000 .. 100,0000%00:00 (00:00)
274 Deadlings: Rotten Edition Nov 11, 2014 $3.9943% (76%)50,000 .. 100,0000%00:00 (00:00)
275 Master Reboot Oct 29, 2013 $14.9943% (76%/59%)50,000 .. 100,0000.98%06:12 (02:04)
276 Chaser Aug 22, 2003 $4.9943% (76%/66%)100,000 .. 200,0000%00:00 (00:00)
277 Fist Puncher Jun 21, 2013 $9.9943% (76%/73%)20,000 .. 50,0000%00:00 (00:00)
278 Battle Time Sep 29, 2016 $0.9943% (76%)20,000 .. 50,0000%00:00 (00:00)
279 GEARGUNS Tank offensive Sep 20, 2016 $1.5141% (75%)20,000 .. 50,0000%00:00 (00:00)
280 Auralux: Constellations Jun 1, 2016 $9.9941% (75%)0 .. 20,0000%00:00 (00:00)
281 BossConstructor Oct 24, 2016 $7.4941% (75%)0 .. 20,0000%00:00 (00:00)
282 Corgi Warlock Dec 3, 2015 $0.4941% (75%)20,000 .. 50,0002.27%04:01 (01:20)
283 Platformines Mar 28, 2014 $9.9941% (75%/67%)100,000 .. 200,0000%00:00 (00:00)
284 FIVE: Champions of Canaan Sep 27, 2016 $3.9941% (75%)0 .. 20,0000%00:00 (00:00)
285 Smell Of Death Jul 4, 2016 $9.9941% (75%)0 .. 20,0000%00:00 (00:00)
286 Spirits of Xanadu Mar 26, 2015 $0.9941% (75%)20,000 .. 50,0000%00:00 (00:00)
287 The Superfluous May 19, 2017 $4.99N/A (N/A)0 .. 20,0000%00:00 (00:00)
288 Zoo Empire Aug 1, 2004 $6.99N/A (N/A/59%)0 .. 20,0000%00:00 (00:00)
289 Pick a Hero Jun 9, 2016 $0.99N/A (N/A)0 .. 20,0000%00:00 (00:00)
290 Perimeter: Emperor's Testament Aug 29, 2006 $3.99N/A (N/A/72%)20,000 .. 50,0000%00:00 (00:00)
291 CivCity: Rome Jul 24, 2006 $9.9941% (75%/67%)50,000 .. 100,0000%00:00 (00:00)
292 Commander: The Great War Nov 12, 2012 $29.9941% (75%)0 .. 20,0000%00:00 (00:00)
293 Onechanbara Z2: Chaos Jun 2, 2016 $39.9941% (75%)0 .. 20,0000%00:00 (00:00)
294 Civil War II Sep 17, 2013 $39.9941% (75%)0 .. 20,0000%00:00 (00:00)
295 Albino Lullaby: Episode 1 Sep 15, 2015 $9.9941% (75%)20,000 .. 50,0000%00:00 (00:00)
296 Victory At Sea Aug 8, 2014 $24.9941% (75%)20,000 .. 50,0000%00:00 (00:00)
297 TableTop Soccer Apr 22, 2016 $0.9939% (74%)0 .. 20,0000%00:00 (00:00)
298 Vampire of the Sands Jul 17, 2015 $4.9939% (74%)20,000 .. 50,0001.52%07:38 (02:32)
299 Auro: A Monster-Bumping Adventure Apr 13, 2016 $6.9939% (74%)0 .. 20,0000%00:00 (00:00)
300 Supreme Ruler Ultimate Oct 17, 2014 $19.9939% (74%)20,000 .. 50,0006.67%00:02 (00:00)
301 Viktor Jun 13, 2014 $7.9939% (74%)20,000 .. 50,0000%00:00 (00:00)
302 Divinity: Dragon Commander Aug 6, 2013 $39.9939% (74%)200,000 .. 500,0000.65%00:34 (00:11)
303 Codex of Victory Mar 16, 2017 $14.9939% (74%)0 .. 20,0000%00:00 (00:00)
304 FEIST Jul 23, 2015 $9.9939% (74%)20,000 .. 50,0000%00:00 (00:00)
305 Sid Meier’s Ace Patrol Aug 27, 2013 $4.9939% (74%)500,000 .. 1,000,0000%00:00 (00:00)
306 Othello Aug 5, 2016 $9.9939% (74%)0 .. 20,0000%00:00 (00:00)
307 Distant Worlds: Universe May 23, 2014 $59.9939% (74%/81%)50,000 .. 100,0003.7%00:38 (00:12)
308 NOBUNAGA’S AMBITION: Kakushin with Power Up Kit / 信長の野望・革新 with パワーアップキット Jun 25, 2015 $54.99N/A (N/A)0 .. 20,0000%00:00 (00:00)
309 Hot Tin Roof: The Cat That Wore A Fedora Feb 20, 2015 $14.9939% (74%/66%)100,000 .. 200,0001.92%01:42 (01:07)
310 Ubersoldier II Jul 22, 2008 $9.9939% (74%/62%)100,000 .. 200,0000%00:00 (00:00)
311 Banzai Escape Mar 16, 2016 $5.9939% (74%)0 .. 20,0000%00:00 (00:00)
312 Phoning Home Feb 7, 2017 $19.9939% (74%/61%)20,000 .. 50,0006.12%03:36 (03:25)
313 Making History: The Great War Jan 29, 2015 $29.9939% (74%)20,000 .. 50,0000%00:00 (00:00)
314 Hunting Unlimited 2008 Sep 1, 2007 $3.99N/A (N/A)20,000 .. 50,0000%00:00 (00:00)
315 Bubsy Two-Fur Jan 1, 1993 $1.9939% (74%)0 .. 20,0000%00:00 (00:00)
316 Cast of the Seven Godsends - Redux Jul 20, 2015 $9.9937% (73%)20,000 .. 50,0000%00:00 (00:00)
317 The Aquatic Adventure of the Last Human Jan 19, 2016 $9.9937% (73%/76%)0 .. 20,0000%00:00 (00:00)
318 VRZ: Torment May 18, 2017 $9.9937% (73%)0 .. 20,0000%00:00 (00:00)
319 Rex Rocket Aug 5, 2014 $4.9937% (73%)20,000 .. 50,0000%00:00 (00:00)
320 Death by Game Show Jan 22, 2016 $9.9937% (73%)20,000 .. 50,0003.57%01:46 (01:10)
321 LEGO Indiana Jones 2: The Adventure Continues Feb 18, 2010 $19.9937% (73%/66%)20,000 .. 50,0000%00:00 (00:00)
322 Retrovirus Jan 31, 2013 $9.9937% (73%/70%)20,000 .. 50,0000%00:00 (00:00)
323 Battle Fleet 2 Nov 20, 2014 $14.9937% (73%)20,000 .. 50,0000%00:00 (00:00)
324 Cross of the Dutchman Sep 10, 2015 $8.9935% (72%/59%)20,000 .. 50,0000%00:00 (00:00)
325 Wyv and Keep: The Temple of the Lost Idol Aug 8, 2014 $14.9935% (72%)20,000 .. 50,0000%00:00 (00:00)
326 Deadnaut Nov 27, 2014 $9.9935% (72%)0 .. 20,0000%00:00 (00:00)
327 Cuban Missile Crisis May 6, 2005 $4.9935% (72%)20,000 .. 50,0000%00:00 (00:00)
328 Fatal Fight Jun 10, 2016 $2.9935% (72%)0 .. 20,0000%00:00 (00:00)
329 Alarameth TD Jun 23, 2015 $4.99N/A (N/A)0 .. 20,0000%00:00 (00:00)
330 Warp Mar 21, 2012 $9.9935% (72%)20,000 .. 50,0000%00:00 (00:00)
331 Panzer Tactics HD May 22, 2014 $9.9935% (72%/69%)20,000 .. 50,0000%00:00 (00:00)
332 Gold Rush! Anniversary Nov 7, 2014 $5.9935% (72%)100,000 .. 200,0001.59%00:06 (00:04)
333 rooMaze Mar 3, 2017 $1.9935% (72%)100,000 .. 200,0000.56%00:06 (00:02)
334 Rise & Shine Jan 13, 2017 $14.9935% (72%)20,000 .. 50,0001.85%03:41 (01:13)
335 Smithy Jun 3, 2016 $3.99N/A (N/A)50,000 .. 100,0000.57%04:12 (01:24)
336 Pike and Shot : Campaigns Aug 13, 2015 $39.9935% (72%)0 .. 20,00020%01:31 (00:30)
337 There Came an Echo Feb 24, 2015 $14.9935% (72%/58%)20,000 .. 50,0000%00:00 (00:00)
338 Airship Dragoon Aug 26, 2014 $19.99N/A (N/A)0 .. 20,0000%00:00 (00:00)
339 The Last Federation Apr 18, 2014 $19.9935% (72%/72%)50,000 .. 100,0000%00:00 (00:00)
340 Pongo May 14, 2015 $0.9935% (72%)50,000 .. 100,0000%00:00 (00:00)
341 Wildlife Park 2 - Crazy Zoo Mar 30, 2007 $3.99N/A (N/A)0 .. 20,0000%00:00 (00:00)
342 King Arthur - The Role-playing Wargame Nov 24, 2009 $9.9935% (72%)200,000 .. 500,0000%00:00 (00:00)
343 Heaven Forest NIGHTS Mar 14, 2017 $0.9935% (72%)100,000 .. 200,0000.78%02:12 (02:12)
344 Civil War: Battle of Petersburg Feb 8, 2017 $0.9935% (72%)0 .. 20,0000%00:00 (00:00)
345 Elliot Quest Nov 10, 2014 $9.9934% (71%)20,000 .. 50,0000%00:00 (00:00)
346 Lost Planet: Extreme Condition Jun 26, 2007 $14.9934% (71%/66%)200,000 .. 500,0000%00:00 (00:00)
347 REDCON Apr 22, 2016 $5.9934% (71%)0 .. 20,0000%00:00 (00:00)
348 Lux Delux May 1, 2015 $9.9934% (71%)20,000 .. 50,0002.13%03:41 (01:13)
349 Revolution Under Siege Gold Jul 2, 2015 $24.9934% (71%)0 .. 20,0000%00:00 (00:00)
350 Tom Clancy's EndWar Feb 25, 2009 $9.9934% (71%/68%)50,000 .. 100,0000%00:00 (00:00)
351 Zombie Camp Jul 31, 2016 $1.99N/A (N/A)0 .. 20,0000%00:00 (00:00)
352 Sengoku Jidai: Shadow of the Shogun May 19, 2016 $29.9934% (71%/80%)0 .. 20,0000%00:00 (00:00)
353 Space Colony: Steam Edition Apr 30, 2015 $14.9934% (71%/74%)20,000 .. 50,0003.03%02:03 (00:41)
354 A.R.E.S.: Extinction Agenda Jan 20, 2011 $4.9934% (71%/68%)100,000 .. 200,0000%00:00 (00:00)
355 Disney Planes Aug 6, 2013 $19.99N/A (N/A)0 .. 20,0000%00:00 (00:00)
356 Elven Legacy Apr 7, 2009 $4.9932% (70%/71%)50,000 .. 100,0000%00:00 (00:00)
357 Incandescent Jun 30, 2015 $0.9932% (70%)20,000 .. 50,0000%00:00 (00:00)
358 BitMaster Oct 12, 2016 $2.9932% (70%)200,000 .. 500,0000%00:00 (00:00)
359 Little King's Story Aug 5, 2016 $19.9932% (70%/62%)0 .. 20,0000%00:00 (00:00)
360 Jagged Alliance 2 - Wildfire Mar 8, 2004 $6.9932% (70%)200,000 .. 500,0002.12%03:02 (02:58)
361 Strategy & Tactics: Wargame Collection Apr 22, 2016 $9.9932% (70%)20,000 .. 50,0001.94%02:02 (01:21)
362 Zombie City Defense 2 Aug 19, 2016 $9.9932% (70%)0 .. 20,0000%00:00 (00:00)
363 Alea Jacta Est Sep 27, 2012 $24.9931% (69%)20,000 .. 50,0009.09%00:08 (00:02)
364 RISK: Factions Mar 8, 2011 $9.9931% (69%/77%)50,000 .. 100,0004.35%00:29 (00:09)
365 Guns n Zombies Oct 30, 2014 $0.7931% (69%)100,000 .. 200,0000%00:00 (00:00)
366 Collapse Sep 25, 2008 $1.9931% (69%)50,000 .. 100,0000%00:00 (00:00)
367 Spud's Quest Jul 31, 2014 $7.99N/A (N/A)0 .. 20,0000%00:00 (00:00)
368 Warrior Kings Apr 13, 2002 $9.9931% (69%/73%)20,000 .. 50,0000%00:00 (00:00)
369 FIVE: Guardians of David Nov 24, 2015 $9.9931% (69%/66%)20,000 .. 50,0000%00:00 (00:00)
370 Quick Slick Deadly Sep 21, 2015 $1.9931% (69%)20,000 .. 50,0000%00:00 (00:00)
371 The Nightmare Cooperative Jul 16, 2014 $4.9931% (69%)50,000 .. 100,0000%00:00 (00:00)
372 UnSummoning: the Spectral Horde Dec 21, 2015 $3.99N/A (N/A)0 .. 20,0000%00:00 (00:00)
373 1775: Rebellion Sep 29, 2016 $24.99N/A (N/A)0 .. 20,00018.75%03:25 (03:25)
374 Sol 0: Mars Colonization Jan 15, 2016 $3.9931% (69%)20,000 .. 50,0000%00:00 (00:00)
375 Scourge of War: Waterloo Nov 19, 2015 $49.9931% (69%)0 .. 20,0000%00:00 (00:00)
376 Brigade E5: New Jagged Union Oct 17, 2006 $3.9931% (69%/41%)0 .. 20,0000%00:00 (00:00)
377 Space Food Truck Mar 25, 2016 $9.9931% (69%)0 .. 20,0000%00:00 (00:00)
378 YAIBA: NINJA GAIDEN Z Mar 21, 2014 $29.9931% (69%/49%)20,000 .. 50,0000%00:00 (00:00)
379 Fair Strike Feb 5, 2004 $3.99N/A (N/A/56%)0 .. 20,0000%00:00 (00:00)
380 Crazy Forest Jul 6, 2016 $4.9929% (68%)100,000 .. 200,0000.58%02:52 (00:57)
381 ManaCollect Apr 17, 2015 $6.9929% (68%)0 .. 20,0003.85%00:30 (00:10)
382 Nomad Fleet Jul 14, 2015 $9.9929% (68%)0 .. 20,0000%00:00 (00:00)
383 Stonerid Dec 18, 2013 $4.9929% (68%)50,000 .. 100,0000%00:00 (00:00)
384 Warhammer 40,000: Armageddon - Da Orks Aug 18, 2016 $19.99N/A (N/A)0 .. 20,0000%00:00 (00:00)
385 Theatre of War 2: Africa 1943 Apr 24, 2009 $4.9929% (68%/63%)100,000 .. 200,0000%00:00 (00:00)
386 The Hive Aug 25, 2016 $9.9929% (68%)20,000 .. 50,0002.86%00:32 (00:10)
387 Toy Odyssey: The Lost and Found Sep 20, 2016 $14.9929% (68%/66%)50,000 .. 100,0000.75%02:13 (00:44)
388 Toren May 11, 2015 $9.9929% (68%/57%)50,000 .. 100,0000.85%02:45 (00:55)
389 Pigmentone Jul 8, 2016 $0.49N/A (N/A)0 .. 20,00018.75%03:00 (02:59)
390 Kill The Plumber Dec 31, 2015 $4.9928% (67%)0 .. 20,0000%00:00 (00:00)
391 Zafehouse: Diaries Sep 6, 2013 $1.9928% (67%)50,000 .. 100,0000%00:00 (00:00)
392 8-Bit Commando Jul 27, 2011 $2.9928% (67%)50,000 .. 100,0000%00:00 (00:00)
393 Sengoku Sep 15, 2011 $9.9928% (67%/70%)100,000 .. 200,0000%00:00 (00:00)
394 Scourge: Outbreak Apr 2, 2014 $7.9928% (67%)100,000 .. 200,0000%00:00 (00:00)
395 Chainsaw Warrior Oct 7, 2013 $4.9928% (67%)100,000 .. 200,0000%00:00 (00:00)
396 Survivor Squad: Gauntlets Nov 16, 2015 $4.9928% (67%)20,000 .. 50,0000%00:00 (00:00)
397 Royal Defense Nov 6, 2014 $0.4928% (67%)50,000 .. 100,0000.47%00:30 (00:10)
398 Commander Cool 2 Dec 17, 2015 $2.9926% (66%)20,000 .. 50,0000%00:00 (00:00)
399 Men of War: Condemned Heroes Apr 12, 2012 $7.9926% (66%/57%)100,000 .. 200,0001.08%00:48 (00:16)
400 The Living Dungeon Nov 2, 2015 $12.9926% (66%)0 .. 20,0000%00:00 (00:00)
401 Platypus II Mar 17, 2007 $6.9926% (66%)200,000 .. 500,0000.88%02:27 (02:23)
402 Mad Combat Marines Jul 13, 2016 $0.9926% (66%)0 .. 20,0001.61%00:01 (00:00)
403 Sky To Fly: Faster Than Wind Mar 25, 2016 $3.9926% (66%)0 .. 20,0000%00:00 (00:00)
404 Bedlam Oct 13, 2015 $12.9926% (66%/54%)100,000 .. 200,0002.62%04:10 (06:14)
405 Assassin’s Creed Chronicles: India Jan 12, 2016 $3.3926% (66%)20,000 .. 50,0006.9%75:30 (42:24)
406 1849 May 8, 2014 $14.9926% (66%)20,000 .. 50,0000%00:00 (00:00)
407 7th Legion Jan 1, 1997 $6.9926% (66%)20,000 .. 50,0000%00:00 (00:00)
408 Ground Breakers Jun 15, 2016 $4.99N/A (N/A)0 .. 20,0000%00:00 (00:00)
409 Hunters Of The Dead Sep 4, 2014 $4.9925% (65%)20,000 .. 50,0000%00:00 (00:00)
410 Zombie Tycoon 2: Brainhov's Revenge Dec 9, 2013 $4.9925% (65%)50,000 .. 100,0000%00:00 (00:00)
411 Devil's Dare 悪魔の挑戦 Oct 21, 2014 $12.9925% (65%)20,000 .. 50,0000%00:00 (00:00)
412 Marauder Sep 10, 2009 $9.9925% (65%)50,000 .. 100,0000%00:00 (00:00)
413 Malebolgia May 6, 2015 $12.9925% (65%)0 .. 20,0000%00:00 (00:00)
414 Infinity Runner Jul 14, 2014 $6.9925% (65%/56%)0 .. 20,0000%00:00 (00:00)
415 Spirit of War Mar 12, 2015 $9.9925% (65%)0 .. 20,0000%00:00 (00:00)
416 March of the Eagles Feb 18, 2013 $19.9925% (65%/71%)50,000 .. 100,0002.27%00:13 (00:04)
417 Disney Pirates of the Caribbean: At Worlds End May 22, 2007 $19.9925% (65%)0 .. 20,0000%00:00 (00:00)
418 The Seven Years War (1756-1763) Oct 30, 2015 $19.9925% (65%)0 .. 20,0000%00:00 (00:00)
419 Theatre of War 2: Kursk 1943 Mar 9, 2010 $4.9925% (65%)20,000 .. 50,0000%00:00 (00:00)
420 Frozen Synapse Prime Nov 14, 2014 $24.9925% (65%/83%)100,000 .. 200,0000%00:00 (00:00)
421 Kaiju-A-GoGo Apr 23, 2015 $9.9924% (64%)20,000 .. 50,0000%00:00 (00:00)
422 Revenge of Roger Rouge Apr 22, 2016 $0.99N/A (N/A)20,000 .. 50,0000%00:00 (00:00)
423 Double Dragon IV Jan 30, 2017 $6.9924% (64%/50%)0 .. 20,0000%00:00 (00:00)
424 Jagged Alliance: Crossfire Aug 24, 2012 $14.9924% (64%/63%)100,000 .. 200,0000%00:00 (00:00)
425 Link Apr 22, 2016 $4.99N/A (N/A)0 .. 20,0000%00:00 (00:00)
426 Rise: Battle Lines Nov 17, 2015 $1.9924% (64%)0 .. 20,0000%00:00 (00:00)
427 Warlock 2: The Exiled Apr 10, 2014 $19.9924% (64%/73%)50,000 .. 100,0000%00:00 (00:00)
428 A Game of Dwarves Oct 23, 2012 $9.9924% (64%/60%)50,000 .. 100,0000%00:00 (00:00)
429 Battle Worlds: Kronos Nov 4, 2013 $19.9924% (64%/71%)20,000 .. 50,0000%00:00 (00:00)
430 Urban Pirate Jun 17, 2016 $6.99N/A (N/A)0 .. 20,0000%00:00 (00:00)
431 Zoo Rampage Jul 9, 2014 $3.9924% (64%)0 .. 20,0000%00:00 (00:00)
432 Beasts Battle Jun 15, 2016 $1.9924% (64%)0 .. 20,0000%00:00 (00:00)
433 SPACECOM Sep 17, 2014 $9.9924% (64%/68%)100,000 .. 200,0000%00:00 (00:00)
434 Will Fight for Food: Super Actual Sellout: Game of the Hour Apr 22, 2015 $5.9923% (63%)0 .. 20,0000%00:00 (00:00)
435 War, the Game Jan 12, 2015 $6.9923% (63%/65%)20,000 .. 50,0000%00:00 (00:00)
436 Desert Ashes Nov 10, 2014 $4.9923% (63%)20,000 .. 50,0000%00:00 (00:00)
437 Port Royale 2 Apr 30, 2004 $0.9923% (63%/75%)50,000 .. 100,0000%00:00 (00:00)
438 Pixel Boy and the Ever Expanding Dungeon May 30, 2014 $0.9923% (63%)20,000 .. 50,0001.35%02:17 (00:45)
439 Sorcerer King: Rivals Sep 22, 2016 $14.9922% (62%)20,000 .. 50,0000%00:00 (00:00)
440 4089: Ghost Within Jan 9, 2015 $5.9922% (62%)0 .. 20,0000%00:00 (00:00)
441 Battleplan: American Civil War Jul 4, 2014 $9.9922% (62%/66%)100,000 .. 200,0001.04%03:16 (03:10)
442 Spice Road Apr 24, 2014 $19.9922% (62%)0 .. 20,0000%00:00 (00:00)
443 My Super Tower 2 Jan 27, 2017 $0.49N/A (N/A)0 .. 20,0000%00:00 (00:00)
444 The Few Jun 18, 2014 $7.9922% (62%)20,000 .. 50,0000%00:00 (00:00)
445 NOBUNAGA'S AMBITION: Tendou with Power Up Kit / 信長の野望・天道 with パワーアップキット Jun 25, 2015 $54.99N/A (N/A)0 .. 20,0000%00:00 (00:00)
446 Goblin Defenders: Steel‘n’ Wood Aug 21, 2013 $2.9922% (62%)20,000 .. 50,0000%00:00 (00:00)
447 Bombshell Jan 29, 2016 $34.9922% (62%)0 .. 20,0000%00:00 (00:00)
448 BattleLore: Command Nov 25, 2014 $6.9922% (62%)0 .. 20,0000%00:00 (00:00)
449 Disney Epic Mickey 2: The Power of Two Nov 18, 2012 $19.9922% (62%)20,000 .. 50,0000%00:00 (00:00)
450 Flashback Oct 1, 2013 $9.9922% (62%)20,000 .. 50,0000%00:00 (00:00)
451 Freight Tycoon Inc. Aug 15, 2007 $4.9922% (62%)20,000 .. 50,0000%00:00 (00:00)
452 Hyperspace Pinball Sep 30, 2015 $2.99N/A (N/A)0 .. 20,0004.35%00:21 (00:07)
453 Quarantine May 24, 2017 $9.9920% (61%)0 .. 20,0000%00:00 (00:00)
454 Supreme Ruler: Cold War Jul 29, 2011 $9.9920% (61%/63%)20,000 .. 50,0000%00:00 (00:00)
455 Legions of Steel Jul 16, 2015 $19.99N/A (N/A/64%)0 .. 20,0000%00:00 (00:00)
456 Men of War: Vietnam Sep 8, 2011 $7.9920% (61%/68%)100,000 .. 200,0001.04%00:17 (00:05)
457 Purgatory Jun 22, 2016 $0.9920% (61%)200,000 .. 500,0000.09%00:01 (00:00)
458 To End All Wars Aug 29, 2014 $39.9920% (61%/71%)0 .. 20,0000%00:00 (00:00)
459 E.T. Armies Mar 3, 2016 $14.9920% (61%/54%)0 .. 20,0000%00:00 (00:00)
460 Skyshine's BEDLAM Sep 16, 2015 $19.9919% (60%/67%)20,000 .. 50,0000%00:00 (00:00)
461 Dawn of Andromeda May 4, 2017 $29.9919% (60%/70%)0 .. 20,0000%00:00 (00:00)
462 Grim Seventh Jan 20, 2017 FreeN/A (N/A)0 .. 20,0000%00:00 (00:00)
463 Close Combat - Panthers in the Fog Nov 19, 2012 $39.9919% (60%)0 .. 20,0000%00:00 (00:00)
464 Life in Bunker Feb 25, 2016 $15.9919% (60%)0 .. 20,00012.5%00:42 (00:14)
465 Call of Duty: Black Ops - Mac Edition Sep 27, 2012 $19.9919% (60%)50,000 .. 100,0000%00:00 (00:00)
466 7 Grand Steps: What Ancients Begat Jun 7, 2013 $19.9919% (60%)100,000 .. 200,0000%00:00 (00:00)
467 Merchants of Kaidan Nov 10, 2014 $14.9919% (60%)100,000 .. 200,0000%00:00 (00:00)
468 Overruled! Sep 15, 2015 $12.9919% (60%)20,000 .. 50,0000%00:00 (00:00)
469 Patrician IV - Steam Special Edition Sep 17, 2010 $14.9919% (60%/66%)100,000 .. 200,0000%00:00 (00:00)
470 Woolfe - The Red Hood Diaries Mar 17, 2015 $9.9919% (60%/55%)50,000 .. 100,0000%00:00 (00:00)
471 Disciples III - Renaissance Steam Special Edition Jul 16, 2010 $14.9919% (60%/56%)100,000 .. 200,0000%00:00 (00:00)
472 Hybrid Wars Sep 29, 2016 $17.9919% (60%/54%)0 .. 20,0000%00:00 (00:00)
473 Code of Princess Apr 14, 2016 $14.9919% (60%/53%)0 .. 20,0000%00:00 (00:00)
474 DreamBreak Jul 21, 2016 $6.9919% (60%/46%)0 .. 20,0000%00:00 (00:00)
475 Stay Dead Evolution Feb 4, 2015 $5.9919% (60%)20,000 .. 50,0001.49%03:30 (01:10)
476 Antisquad Oct 31, 2014 $5.9918% (59%)50,000 .. 100,0007.23%08:14 (08:38)
477 Ninjahtic Mind Tricks Jul 16, 2015 $1.99N/A (N/A)0 .. 20,0000%00:00 (00:00)
478 Armada 2526 Gold Edition Feb 28, 2013 $19.9918% (59%/66%)20,000 .. 50,0000%00:00 (00:00)
479 VR Journey Dec 15, 2016 $2.9918% (59%)20,000 .. 50,0000.78%00:24 (00:08)
480 Cemetery Warrior 3 Feb 3, 2017 $0.9918% (59%)50,000 .. 100,0000%00:00 (00:00)
481 Super Helmets on Fire DX Ultra Edition Plus Alpha Feb 15, 2016 $0.99N/A (N/A)0 .. 20,0000%00:00 (00:00)
482 Prospekt Feb 18, 2016 $9.9918% (59%)20,000 .. 50,0000%00:00 (00:00)
483 Sir! I'd Like To Report A Bug! Oct 19, 2015 $1.99N/A (N/A)0 .. 20,0000%00:00 (00:00)
484 Adventure World Aug 2, 2016 $4.99N/A (N/A)0 .. 20,0000%00:00 (00:00)
485 Wanderlust Adventures Aug 10, 2015 $9.9917% (58%)20,000 .. 50,0000%00:00 (00:00)
486 Heavy Fire: Afghanistan Aug 15, 2014 $2.9917% (58%)20,000 .. 50,0000%00:00 (00:00)
487 Ceres Oct 16, 2015 $19.9917% (58%/74%)0 .. 20,0000%00:00 (00:00)
488 Check vs Mate Aug 16, 2012 $2.9917% (58%/69%)0 .. 20,0001.25%00:01 (00:00)
489 Gnumz: Masters of Defense Dec 21, 2015 $0.4917% (58%)20,000 .. 50,0000.46%05:30 (01:50)
490 NOBUNAGA'S AMBITION: Sphere of Influence - Ascension / 信長の野望・創造 戦国立志伝 Mar 23, 2016 $59.9917% (58%)50,000 .. 100,0000%00:00 (00:00)
491 Colonial Conquest Jul 28, 2015 $9.9917% (58%)0 .. 20,0000%00:00 (00:00)
492 Prophour23 Oct 22, 2014 $9.9917% (58%)0 .. 20,0005.71%03:17 (02:11)
493 Rise of Venice Sep 27, 2013 $19.9916% (57%/66%)50,000 .. 100,0000%00:00 (00:00)
494 Gates of Horizon Dec 18, 2014 $9.9916% (57%)0 .. 20,0000%00:00 (00:00)
495 Assault on Arnhem Mar 11, 2016 $9.99N/A (N/A)0 .. 20,0000%00:00 (00:00)
496 Woodle Tree 2: Worlds Sep 16, 2016 $3.9916% (57%)50,000 .. 100,0000%00:00 (00:00)
497 Unearthed: Trail of Ibn Battuta - Episode 1 - Gold Edition Jan 3, 2014 $4.9916% (57%)20,000 .. 50,0000%00:00 (00:00)
498 Defend Your Crypt Jul 21, 2016 $2.99N/A (N/A)0 .. 20,0000%00:00 (00:00)
499 Defence to death May 11, 2017 $0.67N/A (N/A)50,000 .. 100,0000%00:00 (00:00)
500 reconquest Dec 16, 2016 $11.9915% (56%)0 .. 20,0000%00:00 (00:00)
501 Horizon Feb 6, 2014 $29.9915% (56%)50,000 .. 100,0000%00:00 (00:00)
502 Delve Deeper Sep 24, 2010 $4.9915% (56%)50,000 .. 100,0000%00:00 (00:00)
503 Abalone Apr 23, 2014 $4.9915% (56%)0 .. 20,0000%00:00 (00:00)
504 Sovereignty: Crown of Kings Feb 2, 2017 $24.9915% (55%)0 .. 20,0000%00:00 (00:00)
505 BC Kings Sep 15, 2008 $4.9915% (55%)20,000 .. 50,0000%00:00 (00:00)
506 Pain Train Jan 11, 2017 $0.9915% (55%)50,000 .. 100,0001.79%83:12 (55:18)
507 Wickland Nov 14, 2014 $0.9914% (54%)50,000 .. 100,0000%00:00 (00:00)
508 Tic-Toc-Tower Sep 28, 2015 $2.9914% (54%)0 .. 20,0000%00:00 (00:00)
509 Armada 2526 Jun 10, 2010 $14.99N/A (N/A/66%)0 .. 20,0000%00:00 (00:00)
510 RESCUE 2: Everyday Heroes Jun 3, 2015 $19.9913% (53%)20,000 .. 50,0000%00:00 (00:00)
511 The Stalin Subway Oct 5, 2006 $0.5113% (53%)20,000 .. 50,0000%00:00 (00:00)
512 Aegis Oct 6, 2016 $2.99N/A (N/A)0 .. 20,0000%00:00 (00:00)
513 Story Of the Survivor Feb 17, 2016 $4.99N/A (N/A)0 .. 20,0000.88%00:01 (00:00)
514 Nightside Apr 2, 2015 $9.9913% (53%)20,000 .. 50,0000%00:00 (00:00)
515 Smugglers 5 Apr 11, 2014 $9.9913% (53%)20,000 .. 50,0000%00:00 (00:00)
516 Urja Jan 9, 2015 $9.9913% (53%)20,000 .. 50,0000%00:00 (00:00)
517 Scapeland Mar 31, 2016 $3.9913% (52%)0 .. 20,0000%00:00 (00:00)
518 Royal Bounty HD Aug 10, 2015 $2.9913% (52%)0 .. 20,0000%00:00 (00:00)
519 Biodrone Battle Jul 16, 2015 $1.9913% (52%)100,000 .. 200,0000.66%01:06 (00:22)
520 Meridian: New World Apr 4, 2014 $6.9913% (52%/43%)50,000 .. 100,0000%00:00 (00:00)
521 The Campaign Series: Fall Weiss May 30, 2014 $2.2413% (52%)20,000 .. 50,0000%00:00 (00:00)
522 Crusaders: Thy Kingdom Come Oct 8, 2009 $9.99N/A (N/A)20,000 .. 50,0000%00:00 (00:00)
523 Dusty Revenge:Co-Op Edition Feb 17, 2014 $14.9912% (51%)50,000 .. 100,0000%00:00 (00:00)
524 MinosMaze - The Minotaur's Labyrinth May 1, 2017 $4.99N/A (N/A)0 .. 20,0000%00:00 (00:00)
525 Guncraft Aug 9, 2013 $14.9912% (51%/73%)100,000 .. 200,0000%00:00 (00:00)
526 PeriAreion Feb 19, 2015 $5.99N/A (N/A)0 .. 20,0003.57%02:31 (00:50)
527 MDK2 HD Jul 30, 2012 $14.9911% (50%/73%)0 .. 20,0000%00:00 (00:00)
528 Weather Lord: The Successor's Path Apr 8, 2015 $4.99N/A (N/A)0 .. 20,0000%00:00 (00:00)
529 Castle Werewolf 3D Feb 7, 2017 $2.9911% (50%)50,000 .. 100,0005.19%10:36 (18:55)
530 Albedo: Eyes from Outer Space Apr 10, 2015 $14.9911% (50%/66%)50,000 .. 100,0000%00:00 (00:00)
531 No Pineapple Left Behind Feb 18, 2016 $9.99N/A (N/A/59%)0 .. 20,0000%00:00 (00:00)
532 Odd||Even Apr 6, 2016 $0.9911% (50%)20,000 .. 50,0000%00:00 (00:00)
533 Marvel: Ultimate Alliance 2 Jul 26, 2016 $39.9911% (50%)0 .. 20,0000%00:00 (00:00)
534 Kidnapped Aug 4, 2015 $2.9911% (49%)100,000 .. 200,0000.33%01:32 (00:30)
535 Z Steel Soldiers Aug 1, 2014 $12.9911% (49%)50,000 .. 100,0002.45%02:48 (02:53)
536 Aggression: Europe Under Fire May 10, 2007 $9.9910% (48%)50,000 .. 100,0000%00:00 (00:00)
537 Rubber and Lead Sep 4, 2015 $4.9910% (48%)20,000 .. 50,0000%00:00 (00:00)
538 ALONE IN SPACE Feb 27, 2016 $9.9910% (48%)0 .. 20,0000%00:00 (00:00)
539 Synonymy Dec 12, 2014 $1.9910% (48%)0 .. 20,0002.33%02:27 (00:49)
540 Meridian: Squad 22 Aug 11, 2016 $14.9910% (48%)0 .. 20,0000%00:00 (00:00)
541 Blasting Agent: Ultimate Edition Aug 17, 2016 $2.99N/A (N/A)0 .. 20,0000%00:00 (00:00)
542 Hell Nov 13, 2014 $29.99N/A (N/A)0 .. 20,0000%00:00 (00:00)
543 Star Traders: 4X Empires Nov 18, 2014 $9.999% (47%)0 .. 20,0000%00:00 (00:00)
544 Hero Generations Apr 10, 2015 $5.999% (47%)0 .. 20,0000%00:00 (00:00)
545 Crossfire: Dungeons Jan 15, 2007 $3.999% (47%)0 .. 20,0000%00:00 (00:00)
546 Disposable Heroes Oct 1, 2015 $4.999% (47%)0 .. 20,0000%00:00 (00:00)
547 Island Defense Jul 23, 2015 $1.999% (47%)50,000 .. 100,0000.4%00:01 (00:00)
548 Redemption: Saints And Sinners Nov 18, 2016 $0.999% (46%)50,000 .. 100,0000%00:00 (00:00)
549 Nux Dec 26, 2006 $6.999% (46%)100,000 .. 200,0001.48%02:27 (03:38)
550 The Stalin Subway: Red Veil Oct 5, 2006 $0.59% (46%)50,000 .. 100,0006.25%03:35 (02:23)
551 HitBox Jan 30, 2017 Free9% (46%)0 .. 20,0005.26%03:41 (01:13)
552 Commander: Conquest of the Americas Jul 30, 2010 $9.999% (46%/68%)50,000 .. 100,0000%00:00 (00:00)
553 Magic Quest May 6, 2016 $1.99N/A (N/A)50,000 .. 100,0000.4%04:30 (01:30)
554 Megamagic: Wizards of the Neon Age Apr 20, 2016 $9.999% (46%/67%)20,000 .. 50,0000%00:00 (00:00)
555 Chronostorm: Siberian Border Apr 2, 2009 $0.99N/A (N/A)0 .. 20,0000%00:00 (00:00)
556 The Bluecoats: North vs South May 10, 2012 $4.998% (45%)50,000 .. 100,0001.47%03:11 (01:03)
557 Battle Chess: Game of Kings Dec 11, 2015 $29.998% (45%)0 .. 20,0000%00:00 (00:00)
558 World War 2: Time of Wrath Jun 15, 2009 $4.998% (45%)20,000 .. 50,0000%00:00 (00:00)
559 Carrier Command: Gaea Mission Sep 28, 2012 $32.998% (45%/60%)200,000 .. 500,0000%00:00 (00:00)
560 Vendetta - Curse of Raven's Cry Nov 20, 2015 $8.998% (44%)0 .. 20,0007.14%79:17 (26:25)
561 Impire Feb 14, 2013 $19.998% (44%/45%)100,000 .. 200,0000%00:00 (00:00)
562 Skyward Collapse May 23, 2013 $4.998% (43%/64%)100,000 .. 200,0000%00:00 (00:00)
563 Pride of Nations Jun 8, 2011 $19.998% (43%/70%)20,000 .. 50,0000%00:00 (00:00)
564 Avaris 2: The Return of the Empress Dec 15, 2015 $7.99N/A (N/A)0 .. 20,0000%00:00 (00:00)
565 DUNGEONS - Steam Special Edition Feb 10, 2011 $9.998% (43%/65%)200,000 .. 500,0000%00:00 (00:00)
566 Burstfire Sep 24, 2015 N/A7% (42%)50,000 .. 100,0000%00:00 (00:00)
567 Sword of the Stars II: Enhanced Edition Nov 30, 2012 $19.997% (42%/65%)100,000 .. 200,0000%00:00 (00:00)
568 The Entente Gold Aug 11, 2003 $1.997% (42%)50,000 .. 100,0000%00:00 (00:00)
569 Heavy Fire: Shattered Spear Oct 23, 2015 $3.99N/A (N/A)0 .. 20,0000%00:00 (00:00)
570 Samudai Feb 9, 2015 $2.997% (42%)20,000 .. 50,0000%00:00 (00:00)
571 Rulers of Nations Jul 16, 2014 $19.997% (41%/63%)0 .. 20,0000%00:00 (00:00)
572 Lost in Paradise Aug 20, 2015 $2.997% (41%)20,000 .. 50,0000%00:00 (00:00)
573 Hydraulic Empire Jul 31, 2015 $7.997% (41%)0 .. 20,0000%00:00 (00:00)
574 Infection: Humanity's Last Gasp May 26, 2016 $9.99N/A (N/A)0 .. 20,0000%00:00 (00:00)
575 The Kings' Crusade Oct 8, 2010 $9.996% (40%/71%)50,000 .. 100,0000%00:00 (00:00)
576 Control Craft 2 Feb 15, 2016 $0.56% (40%)0 .. 20,0004.55%05:11 (01:47)
577 Dead But Alive! Southern England Oct 2, 2015 $14.996% (40%)0 .. 20,0000%00:00 (00:00)
578 Wave of Darkness Nov 5, 2015 $29.996% (40%)0 .. 20,0000%00:00 (00:00)
579 Devils & Demons Oct 6, 2015 $9.996% (40%)20,000 .. 50,0000%00:00 (00:00)
580 R.I.P.D.: The Game Jul 16, 2013 $9.996% (40%)20,000 .. 50,0000%00:00 (00:00)
581 Dark Matter Oct 17, 2013 $9.996% (39%)0 .. 20,0000%00:00 (00:00)
582 Dungeons - The Dark Lord Sep 27, 2011 $19.996% (39%/72%)100,000 .. 200,0000.81%00:02 (00:00)
583 Pain Train 2 Mar 16, 2017 $0.696% (39%)0 .. 20,0003.33%05:22 (01:47)
584 Gratuitous Space Battles 2 Apr 16, 2015 $9.996% (38%)20,000 .. 50,0000%00:00 (00:00)
585 Mechs & Mercs: Black Talons Jan 9, 2015 $9.996% (38%)0 .. 20,0000%00:00 (00:00)
586 Risk Jun 10, 2013 $9.996% (38%)20,000 .. 50,0000%00:00 (00:00)
587 Strategic War in Europe Mar 21, 2014 $14.996% (38%)20,000 .. 50,0000%00:00 (00:00)
588 Stellar Impact Apr 12, 2012 $9.995% (37%/74%)50,000 .. 100,0002.27%05:09 (03:25)
589 Tiamat X May 29, 2015 $1.995% (37%)50,000 .. 100,0000%00:00 (00:00)
590 Kick-Ass 2 Aug 15, 2014 $19.995% (36%)0 .. 20,0001.85%01:00 (00:20)
591 Knight Adventure Oct 15, 2015 $0.99N/A (N/A)50,000 .. 100,0000%00:00 (00:00)
592 Blue Sheep Mar 31, 2016 $1.99N/A (N/A)0 .. 20,0000%00:00 (00:00)
593 Urban Empire Jan 20, 2017 $29.995% (35%/62%)50,000 .. 100,0005%03:49 (01:16)
594 Fallen: A2P Protocol Aug 14, 2015 $9.995% (35%)20,000 .. 50,00018.18%01:40 (01:06)
595 Arma Tactics Oct 1, 2013 $8.994% (34%/47%)200,000 .. 500,0000.43%00:01 (00:00)
596 Into the Void Dec 4, 2015 $4.994% (34%)20,000 .. 50,0000%00:00 (00:00)
597 Shadows of War Sep 19, 2014 $2.994% (34%)20,000 .. 50,0000.91%00:05 (00:01)
598 CTU: Counter Terrorism Unit Apr 22, 2016 $14.994% (34%)0 .. 20,0000%00:00 (00:00)
599 Jagged Alliance Flashback Oct 21, 2014 $19.994% (33%)20,000 .. 50,0000%00:00 (00:00)
600 Sim Junta Aug 18, 2015 $1.994% (33%)0 .. 20,0000%00:00 (00:00)
601 Ranger of the jungle Jul 18, 2016 $3.99N/A (N/A)0 .. 20,0000%00:00 (00:00)
602 Disciples III - Resurrection Oct 11, 2011 $14.994% (32%/63%)100,000 .. 200,0000%00:00 (00:00)
603 Ku: Shroud of the Morrigan Mar 17, 2014 $4.994% (31%)20,000 .. 50,0000%00:00 (00:00)
604 Psichodelya Aug 8, 2014 $1.994% (31%)100,000 .. 200,0000.43%00:01 (00:00)
605 - Arcane RERaise - Apr 4, 2017 $2.994% (31%)200,000 .. 500,00019.18%04:14 (03:24)
606 Ground Pounders Jul 15, 2014 $4.99N/A (N/A)0 .. 20,0000%00:00 (00:00)
607 Evopollution Apr 23, 2014 $4.994% (31%)0 .. 20,0000%00:00 (00:00)
608 Zombie Zoeds May 20, 2015 $4.994% (31%)200,000 .. 500,0000%00:00 (00:00)
609 Tank Operations: European Campaign Nov 22, 2013 $14.993% (30%)20,000 .. 50,0000%00:00 (00:00)
610 Robotex Nov 18, 2014 $4.993% (30%)100,000 .. 200,0000%00:00 (00:00)
611 Defenders of Time Nov 4, 2014 N/AN/A (N/A/55%)0 .. 20,0000%00:00 (00:00)
612 A Game of Thrones - Genesis Sep 29, 2011 $9.993% (30%)100,000 .. 200,0000%00:00 (00:00)
613 Power of Defense Aug 4, 2010 $9.99N/A (N/A)0 .. 20,0000%00:00 (00:00)
614 Solar Shifter EX Sep 11, 2015 $4.993% (28%)0 .. 20,0000%00:00 (00:00)
615 Gridberd Sep 7, 2015 $6.993% (26%)200,000 .. 500,0000.16%00:08 (00:02)
616 Hard Truck Apocalypse: Arcade / Ex Machina: Arcade May 24, 2007 $4.993% (26%)20,000 .. 50,0000%00:00 (00:00)
617 Zombies on a Plane Mar 25, 2016 $4.992% (25%)0 .. 20,0000%00:00 (00:00)
618 One Star Apr 17, 2017 $0.5N/A (N/A)50,000 .. 100,0000.45%04:33 (01:31)
619 APOX Jan 20, 2011 $14.992% (23%/48%)20,000 .. 50,0000%00:00 (00:00)
620 Elite vs. Freedom May 31, 2016 $0.992% (22%)0 .. 20,0000%00:00 (00:00)
621 The Asskickers-Steam Edition Feb 6, 2015 $9.992% (22%)0 .. 20,0000%00:00 (00:00)
622 Lords of the Black Sun Sep 12, 2014 $29.992% (21%)0 .. 20,0000%00:00 (00:00)
623 Human Extinction Simulator Jan 21, 2015 $19.99N/A (N/A)0 .. 20,0004.35%03:43 (01:14)
624 Gemini Wars Nov 2, 2012 $14.992% (18%/53%)20,000 .. 50,0000%00:00 (00:00)
625 Tryst Sep 14, 2012 $14.99N/A (N/A/50%)0 .. 20,0000%00:00 (00:00)
626 Star Project Aug 4, 2016 $0.491% (16%)100,000 .. 200,0004.13%04:12 (04:27)
627 Prison Tycoon 3: Lockdown Aug 1, 2007 $9.991% (15%)20,000 .. 50,0000%00:00 (00:00)
628 Once Bitten, Twice Dead! Jul 17, 2015 $4.991% (13%)20,000 .. 50,0000%00:00 (00:00)
629 Citadels Jul 25, 2013 $14.991% (12%/20%)20,000 .. 50,0000%00:00 (00:00)
630 Magnetic By Nature Nov 10, 2014 $9.99N/A (N/A)20,000 .. 50,0000%00:00 (00:00)
631 Bloodbath Jun 16, 2014 $14.99N/A (N/A)0 .. 20,0000%00:00 (00:00)

Owners of this game also own:

Access restricted.

This feature is only available to users with special access rights. Sorry.

If you want to proceed, you need to register or log in first and then back Steam Spy on Patreon. Look for Indie or Pro pledge.

Don't forget to use the same email as on Steam Spy!

Playtime distribution:

Access restricted.

This feature is only available to users with special access rights. Sorry.

If you want to proceed, you need to register or log in first and then back Steam Spy on Patreon. Look for Indie or Pro pledge.

Don't forget to use the same email as on Steam Spy!

Playtime (2 weeks):

Access restricted.

This feature is only available to users with special access rights. Sorry.

If you want to proceed, you need to register or log in first and then back Steam Spy on Patreon. Look for Indie or Pro pledge.

Don't forget to use the same email as on Steam Spy!

User reviews:

Login required.

Please register or log in to see this information.